LOT2PC EDDF-EPWA
Flight info
| Callsign | LOT2PC |
|---|---|
| Flight time | 1h 20m |
| Altitude | 35000 |
| Route | TOBAK2D/07C TOBAK N858 SWALM T201 TAMEB DCT NEVKO DCT POZUM DCT ADVAB DCT OBOKU DCT DOSIX P150 BIMPA |
| Aircraft | B738/M-SDE2E3FGHIRWXY/LB1 |
Departure
| Time | 2026-05-07 19:02 |
|---|---|
| Airport | Frankfurt Main Airport (EDDF) |
Arrival
| Time | 2026-05-07 20:22 |
|---|---|
| Airport | Warsaw Chopin Airport (EPWA) |
| Time | Latitude | Longitude | Altitude | Speed | Heading |
|---|---|---|---|---|---|
| 2026-05-07 18:25 | 50.04724 | 8.58101 | 362 ft | 0 kts | 160° |
| 2026-05-07 18:48 | 50.04733 | 8.58096 | 360 ft | 4 kts | 160° |
| 2026-05-07 18:48 | 50.04758 | 8.58081 | 358 ft | 3 kts | 160° |
| 2026-05-07 18:49 | 50.04776 | 8.58073 | 363 ft | 4 kts | 200° |
| 2026-05-07 18:49 | 50.04791 | 8.58097 | 357 ft | 3 kts | 249° |
| 2026-05-07 18:49 | 50.04795 | 8.58113 | 357 ft | 0 kts | 250° |
| 2026-05-07 18:52 | 50.04795 | 8.58112 | 360 ft | 0 kts | 250° |
| 2026-05-07 18:53 | 50.04791 | 8.58096 | 357 ft | 4 kts | 250° |
| 2026-05-07 18:53 | 50.04776 | 8.58033 | 358 ft | 8 kts | 250° |
| 2026-05-07 18:53 | 50.04749 | 8.57965 | 357 ft | 8 kts | 213° |
| 2026-05-07 18:53 | 50.04685 | 8.57973 | 361 ft | 12 kts | 161° |
| 2026-05-07 18:54 | 50.04604 | 8.58020 | 359 ft | 12 kts | 161° |
| 2026-05-07 18:54 | 50.04533 | 8.57978 | 365 ft | 12 kts | 245° |
| 2026-05-07 18:54 | 50.04501 | 8.57843 | 363 ft | 15 kts | 249° |
| 2026-05-07 18:54 | 50.04461 | 8.57674 | 365 ft | 18 kts | 249° |
| 2026-05-07 18:55 | 50.04416 | 8.57487 | 360 ft | 19 kts | 250° |
| 2026-05-07 18:55 | 50.04370 | 8.57297 | 360 ft | 18 kts | 250° |
| 2026-05-07 18:55 | 50.04327 | 8.57114 | 360 ft | 18 kts | 250° |
| 2026-05-07 18:55 | 50.04284 | 8.56937 | 359 ft | 17 kts | 250° |
| 2026-05-07 18:56 | 50.04243 | 8.56762 | 362 ft | 18 kts | 250° |
| 2026-05-07 18:56 | 50.04196 | 8.56568 | 354 ft | 19 kts | 250° |
| 2026-05-07 18:56 | 50.04153 | 8.56388 | 361 ft | 16 kts | 249° |
| 2026-05-07 18:56 | 50.04116 | 8.56232 | 354 ft | 15 kts | 249° |
| 2026-05-07 18:57 | 50.04081 | 8.56085 | 359 ft | 14 kts | 249° |
| 2026-05-07 18:57 | 50.04047 | 8.55942 | 355 ft | 15 kts | 250° |
| 2026-05-07 18:57 | 50.04009 | 8.55785 | 353 ft | 16 kts | 250° |
| 2026-05-07 18:57 | 50.03968 | 8.55611 | 352 ft | 18 kts | 250° |
| 2026-05-07 18:58 | 50.03925 | 8.55431 | 348 ft | 18 kts | 250° |
| 2026-05-07 18:58 | 50.03883 | 8.55255 | 351 ft | 17 kts | 249° |
| 2026-05-07 18:58 | 50.03842 | 8.55086 | 354 ft | 16 kts | 250° |
| 2026-05-07 18:58 | 50.03803 | 8.54922 | 354 ft | 16 kts | 250° |
| 2026-05-07 18:59 | 50.03765 | 8.54763 | 356 ft | 16 kts | 249° |
| 2026-05-07 18:59 | 50.03724 | 8.54593 | 347 ft | 18 kts | 250° |
| 2026-05-07 18:59 | 50.03683 | 8.54423 | 337 ft | 13 kts | 250° |
| 2026-05-07 18:59 | 50.03635 | 8.54310 | 336 ft | 12 kts | 199° |
| 2026-05-07 19:00 | 50.03588 | 8.54323 | 337 ft | 0 kts | 158° |
| 2026-05-07 19:00 | 50.03581 | 8.54327 | 336 ft | 6 kts | 158° |
| 2026-05-07 19:00 | 50.03524 | 8.54361 | 345 ft | 9 kts | 156° |
| 2026-05-07 19:00 | 50.03500 | 8.54455 | 342 ft | 11 kts | 80° |
| 2026-05-07 19:01 | 50.03506 | 8.54484 | 342 ft | 0 kts | 68° |
| 2026-05-07 19:01 | 50.03521 | 8.54546 | 349 ft | 27 kts | 69° |
| 2026-05-07 19:01 | 50.03674 | 8.55188 | 348 ft | 98 kts | 70° |
| 2026-05-07 19:02 | 50.03986 | 8.56489 | 358 ft | 156 kts | 69° |
| 2026-05-07 19:02 | 50.04391 | 8.58197 | 792 ft | 172 kts | 70° |
| 2026-05-07 19:02 | 50.04793 | 8.59947 | 1647 ft | 172 kts | 70° |
| 2026-05-07 19:02 | 50.05204 | 8.61765 | 2186 ft | 191 kts | 71° |
| 2026-05-07 19:03 | 50.05669 | 8.63858 | 2450 ft | 215 kts | 71° |
| 2026-05-07 19:03 | 50.06170 | 8.66113 | 2921 ft | 224 kts | 71° |
| 2026-05-07 19:03 | 50.06685 | 8.68431 | 3516 ft | 229 kts | 71° |
| 2026-05-07 19:03 | 50.07355 | 8.70682 | 4163 ft | 233 kts | 49° |
| 2026-05-07 19:04 | 50.08724 | 8.72184 | 4556 ft | 255 kts | 24° |
| 2026-05-07 19:04 | 50.10393 | 8.73286 | 5185 ft | 265 kts | 22° |
| 2026-05-07 19:04 | 50.12099 | 8.74405 | 5975 ft | 268 kts | 22° |
| 2026-05-07 19:04 | 50.13828 | 8.75543 | 6771 ft | 271 kts | 22° |
| 2026-05-07 19:05 | 50.15570 | 8.76700 | 7560 ft | 274 kts | 22° |
| 2026-05-07 19:05 | 50.17339 | 8.77885 | 8339 ft | 278 kts | 22° |
| 2026-05-07 19:05 | 50.19126 | 8.79089 | 9084 ft | 282 kts | 22° |
| 2026-05-07 19:05 | 50.20938 | 8.80314 | 9830 ft | 285 kts | 22° |
| 2026-05-07 19:06 | 50.22774 | 8.81559 | 10473 ft | 293 kts | 22° |
| 2026-05-07 19:06 | 50.26826 | 8.84256 | 10844 ft | 339 kts | 17° |
| 2026-05-07 19:06 | 50.29223 | 8.84659 | 11017 ft | 358 kts | 353° |
| 2026-05-07 19:07 | 50.31722 | 8.84129 | 11499 ft | 367 kts | 351° |
| 2026-05-07 19:07 | 50.34263 | 8.83544 | 12136 ft | 371 kts | 351° |
| 2026-05-07 19:07 | 50.36833 | 8.82961 | 12826 ft | 374 kts | 351° |
| 2026-05-07 19:07 | 50.39418 | 8.82389 | 13483 ft | 377 kts | 351° |
| 2026-05-07 19:08 | 50.42027 | 8.81826 | 14129 ft | 380 kts | 351° |
| 2026-05-07 19:08 | 50.44657 | 8.81265 | 14756 ft | 383 kts | 352° |
| 2026-05-07 19:08 | 50.47311 | 8.80702 | 15365 ft | 387 kts | 352° |
| 2026-05-07 19:08 | 50.49993 | 8.80133 | 15953 ft | 390 kts | 352° |
| 2026-05-07 19:09 | 50.52696 | 8.79621 | 16524 ft | 394 kts | 357° |
| 2026-05-07 19:09 | 50.55411 | 8.80228 | 17045 ft | 400 kts | 19° |
| 2026-05-07 19:09 | 50.57834 | 8.82374 | 17633 ft | 403 kts | 38° |
| 2026-05-07 19:09 | 50.59736 | 8.85609 | 18155 ft | 407 kts | 57° |
| 2026-05-07 19:10 | 50.61135 | 8.89516 | 18693 ft | 410 kts | 61° |
| 2026-05-07 19:10 | 50.62475 | 8.93509 | 19184 ft | 414 kts | 62° |
| 2026-05-07 19:10 | 50.63817 | 8.97535 | 19649 ft | 418 kts | 62° |
| 2026-05-07 19:10 | 50.65180 | 9.01580 | 20132 ft | 420 kts | 61° |
| 2026-05-07 19:11 | 50.66572 | 9.05665 | 20623 ft | 423 kts | 61° |
| 2026-05-07 19:11 | 50.67977 | 9.09753 | 21090 ft | 425 kts | 61° |
| 2026-05-07 19:11 | 50.69374 | 9.13810 | 21522 ft | 428 kts | 61° |
| 2026-05-07 19:11 | 50.70813 | 9.18011 | 21943 ft | 431 kts | 62° |
| 2026-05-07 19:12 | 50.72029 | 9.22340 | 22348 ft | 434 kts | 71° |
| 2026-05-07 19:12 | 50.72791 | 9.26905 | 22765 ft | 437 kts | 76° |
| 2026-05-07 19:12 | 50.73467 | 9.31592 | 23082 ft | 439 kts | 77° |
| 2026-05-07 19:12 | 50.74136 | 9.36279 | 23085 ft | 437 kts | 77° |
| 2026-05-07 19:13 | 50.74816 | 9.40974 | 23130 ft | 441 kts | 77° |
| 2026-05-07 19:13 | 50.75520 | 9.45732 | 23384 ft | 446 kts | 76° |
| 2026-05-07 19:13 | 50.76232 | 9.50491 | 23844 ft | 445 kts | 76° |
| 2026-05-07 19:13 | 50.76948 | 9.55257 | 24262 ft | 447 kts | 76° |
| 2026-05-07 19:14 | 50.77665 | 9.60034 | 24603 ft | 449 kts | 76° |
| 2026-05-07 19:14 | 50.78387 | 9.64846 | 24933 ft | 451 kts | 76° |
| 2026-05-07 19:14 | 50.78865 | 9.68057 | 25158 ft | 453 kts | 76° |
| 2026-05-07 19:14 | 50.79584 | 9.72905 | 25499 ft | 455 kts | 76° |
| 2026-05-07 19:15 | 50.80308 | 9.77852 | 25829 ft | 457 kts | 77° |
| 2026-05-07 19:15 | 50.81011 | 9.82693 | 26129 ft | 459 kts | 77° |
| 2026-05-07 19:15 | 50.81733 | 9.87685 | 26441 ft | 460 kts | 77° |
| 2026-05-07 19:15 | 50.82438 | 9.92563 | 26728 ft | 462 kts | 77° |
| 2026-05-07 19:16 | 50.83169 | 9.97592 | 27006 ft | 464 kts | 76° |
| 2026-05-07 19:16 | 50.84045 | 10.02517 | 27231 ft | 467 kts | 72° |
| 2026-05-07 19:16 | 50.85060 | 10.07404 | 27447 ft | 469 kts | 70° |
| 2026-05-07 19:16 | 50.86137 | 10.12301 | 27714 ft | 471 kts | 70° |
| 2026-05-07 19:17 | 50.87221 | 10.17189 | 28046 ft | 471 kts | 70° |
| 2026-05-07 19:17 | 50.88293 | 10.22074 | 28443 ft | 469 kts | 70° |
| 2026-05-07 19:17 | 50.89329 | 10.26877 | 28832 ft | 467 kts | 71° |
| 2026-05-07 19:17 | 50.90362 | 10.31745 | 29183 ft | 466 kts | 71° |
| 2026-05-07 19:18 | 50.91395 | 10.36675 | 29528 ft | 465 kts | 71° |
| 2026-05-07 19:18 | 50.92405 | 10.41531 | 29860 ft | 464 kts | 71° |
| 2026-05-07 19:18 | 50.93410 | 10.46391 | 30193 ft | 463 kts | 71° |
| 2026-05-07 19:18 | 50.94395 | 10.51174 | 30499 ft | 462 kts | 71° |
| 2026-05-07 19:19 | 50.95394 | 10.56027 | 30750 ft | 463 kts | 71° |
| 2026-05-07 19:19 | 50.96392 | 10.60891 | 31001 ft | 464 kts | 71° |
| 2026-05-07 19:19 | 50.97388 | 10.65753 | 31286 ft | 463 kts | 71° |
| 2026-05-07 19:19 | 50.98383 | 10.70620 | 31565 ft | 463 kts | 71° |
| 2026-05-07 19:20 | 50.99374 | 10.75484 | 31818 ft | 463 kts | 72° |
| 2026-05-07 19:20 | 51.00363 | 10.80345 | 32046 ft | 464 kts | 72° |
| 2026-05-07 19:20 | 51.01353 | 10.85217 | 32296 ft | 464 kts | 72° |
| 2026-05-07 19:20 | 51.02338 | 10.90090 | 32580 ft | 463 kts | 72° |
| 2026-05-07 19:21 | 51.03322 | 10.94960 | 32825 ft | 463 kts | 72° |
| 2026-05-07 19:21 | 51.04304 | 10.99830 | 33015 ft | 464 kts | 72° |
| 2026-05-07 19:21 | 51.05287 | 11.04720 | 33215 ft | 465 kts | 72° |
| 2026-05-07 19:21 | 51.06270 | 11.09617 | 33477 ft | 464 kts | 72° |
| 2026-05-07 19:22 | 51.07246 | 11.14495 | 33726 ft | 463 kts | 72° |
| 2026-05-07 19:22 | 51.08221 | 11.19380 | 33928 ft | 464 kts | 72° |
| 2026-05-07 19:22 | 51.09194 | 11.24272 | 34059 ft | 465 kts | 72° |
| 2026-05-07 19:22 | 51.10173 | 11.29203 | 34063 ft | 468 kts | 72° |
| 2026-05-07 19:23 | 51.12118 | 11.39047 | 34070 ft | 464 kts | 72° |
| 2026-05-07 19:23 | 51.14042 | 11.48830 | 34074 ft | 462 kts | 72° |
| 2026-05-07 19:24 | 51.15947 | 11.58565 | 34081 ft | 460 kts | 73° |
| 2026-05-07 19:24 | 51.17838 | 11.68276 | 34088 ft | 459 kts | 73° |
| 2026-05-07 19:25 | 51.19724 | 11.78024 | 34098 ft | 460 kts | 73° |
| 2026-05-07 19:25 | 51.21605 | 11.87776 | 34097 ft | 461 kts | 73° |
| 2026-05-07 19:26 | 51.23485 | 11.97578 | 34099 ft | 463 kts | 73° |
| 2026-05-07 19:26 | 51.25353 | 12.07373 | 34092 ft | 465 kts | 73° |
| 2026-05-07 19:27 | 51.27231 | 12.17259 | 34102 ft | 466 kts | 73° |
| 2026-05-07 19:27 | 51.29092 | 12.27115 | 34103 ft | 467 kts | 73° |
| 2026-05-07 19:28 | 51.30962 | 12.37069 | 34101 ft | 468 kts | 73° |
| 2026-05-07 19:28 | 51.32839 | 12.47122 | 34097 ft | 469 kts | 73° |
| 2026-05-07 19:29 | 51.34683 | 12.57049 | 34088 ft | 468 kts | 74° |
| 2026-05-07 19:29 | 51.36529 | 12.67042 | 34093 ft | 468 kts | 74° |
| 2026-05-07 19:30 | 51.38363 | 12.77020 | 34092 ft | 467 kts | 74° |
| 2026-05-07 19:30 | 51.40191 | 12.87017 | 34210 ft | 470 kts | 74° |
| 2026-05-07 19:31 | 51.41106 | 12.92046 | 34436 ft | 469 kts | 74° |
| 2026-05-07 19:31 | 51.42013 | 12.97043 | 34704 ft | 467 kts | 74° |
| 2026-05-07 19:31 | 51.42918 | 13.02037 | 34944 ft | 467 kts | 74° |
| 2026-05-07 19:31 | 51.43806 | 13.07058 | 35066 ft | 468 kts | 75° |
| 2026-05-07 19:32 | 51.45529 | 13.17169 | 35071 ft | 470 kts | 75° |
| 2026-05-07 19:32 | 51.47226 | 13.27252 | 35069 ft | 467 kts | 76° |
| 2026-05-07 19:33 | 51.48913 | 13.37293 | 35069 ft | 464 kts | 76° |
| 2026-05-07 19:33 | 51.50590 | 13.47278 | 35078 ft | 463 kts | 76° |
| 2026-05-07 19:34 | 51.52248 | 13.57189 | 35069 ft | 462 kts | 76° |
| 2026-05-07 19:34 | 51.53909 | 13.67179 | 35080 ft | 463 kts | 76° |
| 2026-05-07 19:35 | 51.55553 | 13.77137 | 35079 ft | 464 kts | 76° |
| 2026-05-07 19:35 | 51.57200 | 13.87178 | 35070 ft | 465 kts | 76° |
| 2026-05-07 19:36 | 51.58844 | 13.97255 | 35078 ft | 467 kts | 76° |
| 2026-05-07 19:36 | 51.60484 | 14.07375 | 35087 ft | 468 kts | 76° |
| 2026-05-07 19:37 | 51.62121 | 14.17523 | 35087 ft | 470 kts | 76° |
| 2026-05-07 19:37 | 51.63755 | 14.27718 | 35080 ft | 470 kts | 76° |
| 2026-05-07 19:38 | 51.65382 | 14.37926 | 35084 ft | 471 kts | 77° |
| 2026-05-07 19:38 | 51.66990 | 14.48090 | 35086 ft | 471 kts | 77° |
| 2026-05-07 19:39 | 51.68600 | 14.58323 | 35082 ft | 471 kts | 77° |
| 2026-05-07 19:39 | 51.70198 | 14.68547 | 35082 ft | 470 kts | 77° |
| 2026-05-07 19:40 | 51.71784 | 14.78758 | 35097 ft | 469 kts | 77° |
| 2026-05-07 19:40 | 51.73357 | 14.88955 | 35083 ft | 468 kts | 77° |
| 2026-05-07 19:41 | 51.74825 | 14.98506 | 35095 ft | 468 kts | 78° |
| 2026-05-07 19:41 | 51.76378 | 15.08704 | 35095 ft | 467 kts | 78° |
| 2026-05-07 19:42 | 51.77920 | 15.18887 | 35090 ft | 467 kts | 78° |
| 2026-05-07 19:42 | 51.79459 | 15.29099 | 35102 ft | 467 kts | 78° |
| 2026-05-07 19:43 | 51.80986 | 15.39304 | 35102 ft | 468 kts | 78° |
| 2026-05-07 19:43 | 51.82506 | 15.49535 | 35104 ft | 468 kts | 78° |
| 2026-05-07 19:44 | 51.83980 | 15.59516 | 35103 ft | 469 kts | 79° |
| 2026-05-07 19:44 | 51.85487 | 15.69795 | 35104 ft | 469 kts | 79° |
| 2026-05-07 19:45 | 51.86988 | 15.80086 | 35104 ft | 470 kts | 79° |
| 2026-05-07 19:45 | 51.88479 | 15.90393 | 35102 ft | 470 kts | 79° |
| 2026-05-07 19:46 | 51.89916 | 16.00387 | 35103 ft | 470 kts | 79° |
| 2026-05-07 19:46 | 51.91389 | 16.10695 | 35099 ft | 470 kts | 79° |
| 2026-05-07 19:47 | 51.92853 | 16.21008 | 35087 ft | 470 kts | 79° |
| 2026-05-07 19:47 | 51.94307 | 16.31329 | 35092 ft | 470 kts | 79° |
| 2026-05-07 19:48 | 51.95752 | 16.41660 | 35094 ft | 469 kts | 79° |
| 2026-05-07 19:48 | 51.97188 | 16.51976 | 35092 ft | 469 kts | 79° |
| 2026-05-07 19:49 | 51.98565 | 16.61964 | 35085 ft | 469 kts | 80° |
| 2026-05-07 19:49 | 51.99936 | 16.71969 | 35086 ft | 469 kts | 80° |
| 2026-05-07 19:50 | 52.01292 | 16.81921 | 35087 ft | 469 kts | 80° |
| 2026-05-07 19:50 | 52.02683 | 16.92202 | 35075 ft | 469 kts | 80° |
| 2026-05-07 19:51 | 52.04069 | 17.02524 | 35076 ft | 469 kts | 80° |
| 2026-05-07 19:51 | 52.05450 | 17.12886 | 35077 ft | 470 kts | 80° |
| 2026-05-07 19:52 | 52.06770 | 17.22854 | 35073 ft | 470 kts | 80° |
| 2026-05-07 19:52 | 52.08136 | 17.33256 | 35068 ft | 470 kts | 80° |
| 2026-05-07 19:53 | 52.09495 | 17.43669 | 35074 ft | 471 kts | 80° |
| 2026-05-07 19:53 | 52.10845 | 17.54088 | 35068 ft | 471 kts | 81° |
| 2026-05-07 19:54 | 52.12189 | 17.64538 | 35058 ft | 473 kts | 81° |
| 2026-05-07 19:54 | 52.12861 | 17.69795 | 34759 ft | 476 kts | 81° |
| 2026-05-07 19:54 | 52.13533 | 17.75074 | 34409 ft | 476 kts | 81° |
| 2026-05-07 19:55 | 52.14199 | 17.80313 | 34058 ft | 471 kts | 81° |
| 2026-05-07 19:55 | 52.14861 | 17.85545 | 33710 ft | 470 kts | 81° |
| 2026-05-07 19:55 | 52.15518 | 17.90753 | 33366 ft | 471 kts | 81° |
| 2026-05-07 19:55 | 52.16085 | 17.95937 | 33019 ft | 469 kts | 86° |
| 2026-05-07 19:56 | 52.16411 | 18.01223 | 32681 ft | 468 kts | 88° |
| 2026-05-07 19:56 | 52.16643 | 18.06515 | 32333 ft | 468 kts | 89° |
| 2026-05-07 19:56 | 52.16845 | 18.11803 | 31989 ft | 468 kts | 90° |
| 2026-05-07 19:56 | 52.17047 | 18.17085 | 31641 ft | 468 kts | 89° |
| 2026-05-07 19:57 | 52.17188 | 18.20607 | 31412 ft | 469 kts | 89° |
| 2026-05-07 19:57 | 52.17411 | 18.25906 | 31068 ft | 470 kts | 89° |
| 2026-05-07 19:57 | 52.17646 | 18.31227 | 30720 ft | 470 kts | 89° |
| 2026-05-07 19:57 | 52.17888 | 18.36557 | 30375 ft | 470 kts | 89° |
| 2026-05-07 19:58 | 52.18130 | 18.41871 | 30037 ft | 471 kts | 89° |
| 2026-05-07 19:58 | 52.18372 | 18.47193 | 29678 ft | 471 kts | 89° |
| 2026-05-07 19:58 | 52.18613 | 18.52531 | 29330 ft | 472 kts | 89° |
| 2026-05-07 19:58 | 52.18850 | 18.57872 | 28993 ft | 473 kts | 89° |
| 2026-05-07 19:59 | 52.19086 | 18.63232 | 28636 ft | 474 kts | 89° |
| 2026-05-07 19:59 | 52.19320 | 18.68586 | 28293 ft | 475 kts | 89° |
| 2026-05-07 19:59 | 52.19547 | 18.73869 | 27950 ft | 476 kts | 89° |
| 2026-05-07 19:59 | 52.19775 | 18.79233 | 27601 ft | 477 kts | 89° |
| 2026-05-07 20:00 | 52.20003 | 18.84631 | 27255 ft | 478 kts | 89° |
| 2026-05-07 20:00 | 52.20228 | 18.90041 | 26910 ft | 479 kts | 89° |
| 2026-05-07 20:00 | 52.20452 | 18.95471 | 26562 ft | 480 kts | 89° |
| 2026-05-07 20:00 | 52.20673 | 19.00905 | 26214 ft | 481 kts | 89° |
| 2026-05-07 20:01 | 52.20892 | 19.06352 | 25867 ft | 482 kts | 89° |
| 2026-05-07 20:01 | 52.21109 | 19.11806 | 25519 ft | 482 kts | 89° |
| 2026-05-07 20:01 | 52.21324 | 19.17266 | 25169 ft | 482 kts | 89° |
| 2026-05-07 20:01 | 52.21535 | 19.22705 | 24819 ft | 481 kts | 89° |
| 2026-05-07 20:02 | 52.21744 | 19.28134 | 24467 ft | 478 kts | 89° |
| 2026-05-07 20:02 | 52.21950 | 19.33529 | 24115 ft | 475 kts | 89° |
| 2026-05-07 20:02 | 52.22152 | 19.38898 | 23763 ft | 472 kts | 89° |
| 2026-05-07 20:02 | 52.22349 | 19.44224 | 23412 ft | 468 kts | 89° |
| 2026-05-07 20:03 | 52.22541 | 19.49505 | 23062 ft | 465 kts | 89° |
| 2026-05-07 20:03 | 52.22730 | 19.54757 | 22711 ft | 462 kts | 89° |
| 2026-05-07 20:03 | 52.22916 | 19.59974 | 22362 ft | 459 kts | 89° |
| 2026-05-07 20:03 | 52.23098 | 19.65159 | 22011 ft | 457 kts | 89° |
| 2026-05-07 20:04 | 52.23276 | 19.70253 | 21663 ft | 454 kts | 89° |
| 2026-05-07 20:04 | 52.23452 | 19.75385 | 21315 ft | 452 kts | 89° |
| 2026-05-07 20:04 | 52.23625 | 19.80493 | 20530 ft | 450 kts | 89° |
| 2026-05-07 20:04 | 52.23794 | 19.85504 | 19892 ft | 434 kts | 89° |
| 2026-05-07 20:05 | 52.23955 | 19.90334 | 19305 ft | 419 kts | 89° |
| 2026-05-07 20:05 | 52.24110 | 19.95000 | 18768 ft | 405 kts | 89° |
| 2026-05-07 20:05 | 52.24256 | 19.99513 | 18253 ft | 392 kts | 89° |
| 2026-05-07 20:05 | 52.24396 | 20.03914 | 17755 ft | 383 kts | 89° |
| 2026-05-07 20:06 | 52.24531 | 20.08212 | 17277 ft | 379 kts | 89° |
| 2026-05-07 20:06 | 52.24663 | 20.12545 | 16812 ft | 389 kts | 89° |
| 2026-05-07 20:06 | 52.24798 | 20.17008 | 16309 ft | 394 kts | 89° |
| 2026-05-07 20:06 | 52.24932 | 20.21459 | 15796 ft | 391 kts | 89° |
| 2026-05-07 20:07 | 52.25064 | 20.25871 | 15292 ft | 388 kts | 88° |
| 2026-05-07 20:07 | 52.25194 | 20.30253 | 14790 ft | 385 kts | 88° |
| 2026-05-07 20:07 | 52.25321 | 20.34589 | 14291 ft | 382 kts | 88° |
| 2026-05-07 20:07 | 52.25447 | 20.38903 | 13792 ft | 380 kts | 88° |
| 2026-05-07 20:08 | 52.25568 | 20.43197 | 13301 ft | 377 kts | 88° |
| 2026-05-07 20:08 | 52.25686 | 20.47439 | 12812 ft | 373 kts | 88° |
| 2026-05-07 20:08 | 52.25802 | 20.51645 | 12329 ft | 370 kts | 88° |
| 2026-05-07 20:08 | 52.25919 | 20.55843 | 11844 ft | 367 kts | 88° |
| 2026-05-07 20:09 | 52.26029 | 20.59869 | 11377 ft | 365 kts | 88° |
| 2026-05-07 20:09 | 52.26143 | 20.63986 | 11021 ft | 358 kts | 88° |
| 2026-05-07 20:09 | 52.26246 | 20.67917 | 10872 ft | 347 kts | 88° |
| 2026-05-07 20:10 | 52.26442 | 20.75550 | 10554 ft | 327 kts | 88° |
| 2026-05-07 20:10 | 52.26535 | 20.79205 | 10414 ft | 318 kts | 88° |
| 2026-05-07 20:10 | 52.26623 | 20.82719 | 10277 ft | 310 kts | 88° |
| 2026-05-07 20:10 | 52.26711 | 20.86222 | 10140 ft | 301 kts | 88° |
| 2026-05-07 20:11 | 52.26795 | 20.89610 | 9972 ft | 294 kts | 88° |
| 2026-05-07 20:11 | 52.26874 | 20.92858 | 9753 ft | 290 kts | 88° |
| 2026-05-07 20:11 | 52.26953 | 20.96140 | 9466 ft | 289 kts | 88° |
| 2026-05-07 20:11 | 52.26995 | 20.99408 | 9161 ft | 287 kts | 95° |
| 2026-05-07 20:12 | 52.26367 | 21.02498 | 8847 ft | 285 kts | 125° |
| 2026-05-07 20:12 | 52.24981 | 21.04761 | 8493 ft | 283 kts | 148° |
| 2026-05-07 20:12 | 52.23289 | 21.06297 | 8217 ft | 281 kts | 154° |
| 2026-05-07 20:12 | 52.21527 | 21.07765 | 7910 ft | 280 kts | 154° |
| 2026-05-07 20:13 | 52.19833 | 21.09188 | 7759 ft | 274 kts | 153° |
| 2026-05-07 20:13 | 52.18144 | 21.10626 | 7409 ft | 275 kts | 153° |
| 2026-05-07 20:13 | 52.16456 | 21.12073 | 7112 ft | 272 kts | 153° |
| 2026-05-07 20:13 | 52.14800 | 21.13500 | 6804 ft | 265 kts | 153° |
| 2026-05-07 20:14 | 52.13194 | 21.14903 | 6494 ft | 259 kts | 152° |
| 2026-05-07 20:14 | 52.11620 | 21.16283 | 6187 ft | 254 kts | 152° |
| 2026-05-07 20:14 | 52.10080 | 21.17635 | 5883 ft | 249 kts | 152° |
| 2026-05-07 20:14 | 52.08567 | 21.18958 | 5573 ft | 245 kts | 152° |
| 2026-05-07 20:15 | 52.07079 | 21.20259 | 5319 ft | 241 kts | 152° |
| 2026-05-07 20:15 | 52.05575 | 21.21567 | 5307 ft | 247 kts | 152° |
| 2026-05-07 20:15 | 52.04066 | 21.22889 | 5265 ft | 245 kts | 152° |
| 2026-05-07 20:15 | 52.02526 | 21.24094 | 5022 ft | 248 kts | 156° |
| 2026-05-07 20:16 | 52.00952 | 21.25228 | 4724 ft | 246 kts | 158° |
| 2026-05-07 20:16 | 51.99361 | 21.26133 | 4402 ft | 240 kts | 169° |
| 2026-05-07 20:16 | 51.97717 | 21.26139 | 4090 ft | 236 kts | 195° |
| 2026-05-07 20:16 | 51.96325 | 21.24893 | 3782 ft | 230 kts | 230° |
| 2026-05-07 20:17 | 51.95616 | 21.22617 | 3481 ft | 226 kts | 263° |
| 2026-05-07 20:17 | 51.95808 | 21.20127 | 3320 ft | 225 kts | 295° |
| 2026-05-07 20:17 | 51.96687 | 21.17992 | 3318 ft | 231 kts | 312° |
| 2026-05-07 20:17 | 51.97776 | 21.16084 | 3270 ft | 230 kts | 313° |
| 2026-05-07 20:18 | 51.98862 | 21.14213 | 3264 ft | 225 kts | 314° |
| 2026-05-07 20:18 | 51.99940 | 21.12361 | 3283 ft | 226 kts | 313° |
| 2026-05-07 20:18 | 52.01013 | 21.10488 | 3263 ft | 223 kts | 315° |
| 2026-05-07 20:18 | 52.02257 | 21.09136 | 3216 ft | 213 kts | 339° |
| 2026-05-07 20:19 | 52.03598 | 21.08162 | 2993 ft | 209 kts | 332° |
| 2026-05-07 20:19 | 52.04848 | 21.07020 | 2729 ft | 204 kts | 330° |
| 2026-05-07 20:19 | 52.06081 | 21.05919 | 2456 ft | 200 kts | 330° |
| 2026-05-07 20:19 | 52.07283 | 21.04860 | 2172 ft | 192 kts | 330° |
| 2026-05-07 20:20 | 52.08424 | 21.03860 | 1924 ft | 181 kts | 331° |
| 2026-05-07 20:20 | 52.09503 | 21.02912 | 1690 ft | 171 kts | 332° |
| 2026-05-07 20:20 | 52.10500 | 21.02038 | 1481 ft | 158 kts | 332° |
| 2026-05-07 20:20 | 52.11454 | 21.01200 | 1285 ft | 153 kts | 332° |
| 2026-05-07 20:21 | 52.12380 | 21.00389 | 1079 ft | 149 kts | 332° |
| 2026-05-07 20:21 | 52.13290 | 20.99590 | 884 ft | 149 kts | 332° |
| 2026-05-07 20:21 | 52.14192 | 20.98798 | 677 ft | 149 kts | 332° |
| 2026-05-07 20:21 | 52.15113 | 20.97979 | 471 ft | 153 kts | 332° |
| 2026-05-07 20:22 | 52.16047 | 20.97171 | 346 ft | 146 kts | 332° |
| 2026-05-07 20:22 | 52.16836 | 20.96475 | 336 ft | 107 kts | 331° |
| 2026-05-07 20:22 | 52.17273 | 20.96106 | 334 ft | 43 kts | 343° |
| 2026-05-07 20:22 | 52.17445 | 20.96062 | 336 ft | 13 kts | 357° |
| 2026-05-07 20:23 | 52.17534 | 20.96066 | 336 ft | 11 kts | 7° |
| 2026-05-07 20:23 | 52.17591 | 20.96101 | 338 ft | 8 kts | 26° |
| 2026-05-07 20:23 | 52.17626 | 20.96159 | 336 ft | 7 kts | 85° |
| 2026-05-07 20:23 | 52.17599 | 20.96216 | 337 ft | 7 kts | 151° |
| 2026-05-07 20:24 | 52.17539 | 20.96267 | 334 ft | 13 kts | 152° |
| 2026-05-07 20:24 | 52.17457 | 20.96340 | 337 ft | 13 kts | 151° |
| 2026-05-07 20:24 | 52.17378 | 20.96409 | 334 ft | 13 kts | 152° |
| 2026-05-07 20:24 | 52.17300 | 20.96476 | 336 ft | 12 kts | 152° |
| 2026-05-07 20:25 | 52.17225 | 20.96543 | 336 ft | 12 kts | 152° |
| 2026-05-07 20:25 | 52.17151 | 20.96606 | 338 ft | 12 kts | 151° |
| 2026-05-07 20:25 | 52.17141 | 20.96722 | 336 ft | 12 kts | 64° |
| 2026-05-07 20:25 | 52.17150 | 20.96840 | 334 ft | 11 kts | 128° |
| 2026-05-07 20:26 | 52.17084 | 20.96905 | 334 ft | 11 kts | 153° |
| 2026-05-07 20:26 | 52.17017 | 20.96963 | 334 ft | 11 kts | 152° |
| 2026-05-07 20:26 | 52.16953 | 20.97019 | 338 ft | 10 kts | 152° |
| 2026-05-07 20:26 | 52.16932 | 20.97089 | 335 ft | 7 kts | 71° |
| 2026-05-07 20:27 | 52.16950 | 20.97161 | 338 ft | 6 kts | 68° |
| 2026-05-07 20:27 | 52.16957 | 20.97189 | 337 ft | 0 kts | 67° |